Main page
METAR-TAF:

METAR-TAF

Airports :

Novara, Italy

Aeroporto di Cameri

latitude: 45-31N, longitude: 008-40E, elevation: 178 m

Current weather observation

The report was made 6 hours and 31 minutes ago, at 17:55 UTC
Wind 3 kt from the South/Southeast
Temperature 4°C
Humidity 93%
Pressure 1008 hPa
Visibility: 3000 m
Scattered clouds at a height of 3000 ft
Broken clouds at a height of 6000 ft
light drizzle, mist

METAR: LIMN 221755Z 16003KT 3000 -DZ BR SCT030 BKN060 04/03 Q1008 RMK OVC VIS MIN 3000 YLO

Time: 01:26 (00:26 UTC)

Forecast

The report was made 7 hours and 26 minutes ago, at 17:00 UTC
Forecast valid from 22 at 18 UTC to 23 at 03 UTC
Wind 5 kt from variable directions
Visibility: 5000 m
Scattered clouds at a height of 3000 ft
Broken clouds at a height of 4000 ft
mist
Temporary
from 22 at 18 UTC to 23 at 03 UTC
Visibility: 2500 m
rain, mist

TAF: LIMN 221700Z 2218/2303 VRB05KT 5000 BR SCT030 BKN040 TEMPO 2218/2303 2500 RA BR

Weather observations and forecasts of more than 4000 airports (METAR and TAF reports).

The available stations are represented by yellow and red dots on the map.

Hover mouse over dot to see the name of the station.

Then click to see weather observations and forecasts.

To change the map : click on the green buttons with a black cross to zoom in, on the green button with a dash to zoom out, or on the green arrows for adjacent maps.


METAR-TAF: